sensor_id;sensor_type;location;lat;lon;timestamp;temperature;humidity
23271;DHT22;11804;51.118;17.058;2023-02-01T00:00:41;3.00;99.90
23271;DHT22;11804;51.118;17.058;2023-02-01T00:03:09;3.00;99.90
23271;DHT22;11804;51.118;17.058;2023-02-01T00:05:37;3.00;99.90
23271;DHT22;11804;51.118;17.058;2023-02-01T00:08:05;3.00;99.90
23271;DHT22;11804;51.118;17.058;2023-02-01T00:10:33;3.10;99.90
23271;DHT22;11804;51.118;17.058;2023-02-01T00:13:00;3.10;99.90
23271;DHT22;11804;51.118;17.058;2023-02-01T00:15:28;3.10;99.90
23271;DHT22;11804;51.118;17.058;2023-02-01T00:17:56;3.00;99.90
23271;DHT22;11804;51.118;17.058;2023-02-01T00:20:23;3.00;99.90
23271;DHT22;11804;51.118;17.058;2023-02-01T00:22:51;3.00;99.90
23271;DHT22;11804;51.118;17.058;2023-02-01T00:25:18;3.00;99.90
23271;DHT22;11804;51.118;17.058;2023-02-01T00:27:48;3.10;99.90
23271;DHT22;11804;51.118;17.058;2023-02-01T00:30:17;3.10;99.90
23271;DHT22;11804;51.118;17.058;2023-02-01T00:32:45;3.10;99.90
23271;DHT22;11804;51.118;17.058;2023-02-01T00:35:13;3.10;99.90
23271;DHT22;11804;51.118;17.058;2023-02-01T00:37:40;3.10;99.90
23271;DHT22;11804;51.118;17.058;2023-02-01T00:40:09;3.20;99.90
23271;DHT22;11804;51.118;17.058;2023-02-01T00:42:37;3.20;99.90
23271;DHT22;11804;51.118;17.058;2023-02-01T00:45:05;3.20;99.90
23271;DHT22;11804;51.118;17.058;2023-02-01T00:47:33;3.20;99.90
23271;DHT22;11804;51.118;17.058;2023-02-01T00:50:01;3.30;99.90
23271;DHT22;11804;51.118;17.058;2023-02-01T00:52:28;3.30;99.90
23271;DHT22;11804;51.118;17.058;2023-02-01T00:54:56;3.30;99.90
23271;DHT22;11804;51.118;17.058;2023-02-01T00:57:24;3.20;99.90
23271;DHT22;11804;51.118;17.058;2023-02-01T00:59:51;3.20;99.90
23271;DHT22;11804;51.118;17.058;2023-02-01T01:02:19;3.30;99.90
23271;DHT22;11804;51.118;17.058;2023-02-01T01:04:47;3.30;99.90
23271;DHT22;11804;51.118;17.058;2023-02-01T01:07:14;3.30;99.90
23271;DHT22;11804;51.118;17.058;2023-02-01T01:09:42;3.30;99.90
23271;DHT22;11804;51.118;17.058;2023-02-01T01:12:09;3.30;99.90
23271;DHT22;11804;51.118;17.058;2023-02-01T01:14:37;3.40;99.90
23271;DHT22;11804;51.118;17.058;2023-02-01T01:17:05;3.40;99.90
23271;DHT22;11804;51.118;17.058;2023-02-01T01:19:32;3.50;99.90
23271;DHT22;11804;51.118;17.058;2023-02-01T01:22:00;3.50;99.90
23271;DHT22;11804;51.118;17.058;2023-02-01T01:24:27;3.50;99.90
23271;DHT22;11804;51.118;17.058;2023-02-01T01:26:55;3.50;99.90
23271;DHT22;11804;51.118;17.058;2023-02-01T01:29:23;3.50;99.90
23271;DHT22;11804;51.118;17.058;2023-02-01T01:31:50;3.40;99.90
23271;DHT22;11804;51.118;17.058;2023-02-01T01:34:18;3.40;99.90
23271;DHT22;11804;51.118;17.058;2023-02-01T01:36:46;3.50;99.90
23271;DHT22;11804;51.118;17.058;2023-02-01T01:39:13;3.50;99.90
23271;DHT22;11804;51.118;17.058;2023-02-01T01:41:41;3.50;99.90
23271;DHT22;11804;51.118;17.058;2023-02-01T01:47:14;3.60;99.90
23271;DHT22;11804;51.118;17.058;2023-02-01T01:49:43;3.60;99.90
23271;DHT22;11804;51.118;17.058;2023-02-01T01:52:11;3.50;99.90
23271;DHT22;11804;51.118;17.058;2023-02-01T01:54:42;3.50;99.90
23271;DHT22;11804;51.118;17.058;2023-02-01T01:57:18;3.40;99.90
23271;DHT22;11804;51.118;17.058;2023-02-01T01:59:43;3.20;99.90
23271;DHT22;11804;51.118;17.058;2023-02-01T02:02:12;3.20;99.90
23271;DHT22;11804;51.118;17.058;2023-02-01T02:04:40;3.10;99.90
23271;DHT22;11804;51.118;17.058;2023-02-01T02:07:13;3.10;99.90
23271;DHT22;11804;51.118;17.058;2023-02-01T02:09:41;3.10;99.90
23271;DHT22;11804;51.118;17.058;2023-02-01T02:12:09;3.10;99.90
23271;DHT22;11804;51.118;17.058;2023-02-01T02:14:38;3.20;99.90
23271;DHT22;11804;51.118;17.058;2023-02-01T02:23:03;3.30;99.90
23271;DHT22;11804;51.118;17.058;2023-02-01T02:25:38;3.40;99.90
23271;DHT22;11804;51.118;17.058;2023-02-01T02:28:16;3.40;99.90
23271;DHT22;11804;51.118;17.058;2023-02-01T02:31:12;3.40;99.90
23271;DHT22;11804;51.118;17.058;2023-02-01T02:39:48;3.50;99.90
23271;DHT22;11804;51.118;17.058;2023-02-01T02:42:12;3.50;99.90
23271;DHT22;11804;51.118;17.058;2023-02-01T02:50:29;3.60;99.90
23271;DHT22;11804;51.118;17.058;2023-02-01T02:53:19;3.60;99.90
23271;DHT22;11804;51.118;17.058;2023-02-01T02:56:06;3.70;99.90
23271;DHT22;11804;51.118;17.058;2023-02-01T02:58:52;3.70;99.90
23271;DHT22;11804;51.118;17.058;2023-02-01T03:01:38;3.80;99.90
23271;DHT22;11804;51.118;17.058;2023-02-01T03:04:25;3.80;99.90
23271;DHT22;11804;51.118;17.058;2023-02-01T03:06:54;3.80;99.90
23271;DHT22;11804;51.118;17.058;2023-02-01T03:09:33;3.90;99.90
23271;DHT22;11804;51.118;17.058;2023-02-01T03:12:07;3.90;99.90
23271;DHT22;11804;51.118;17.058;2023-02-01T03:14:56;3.90;99.90
23271;DHT22;11804;51.118;17.058;2023-02-01T03:17:27;3.80;99.90
23271;DHT22;11804;51.118;17.058;2023-02-01T03:19:55;3.80;99.90
23271;DHT22;11804;51.118;17.058;2023-02-01T03:22:27;3.80;99.90
23271;DHT22;11804;51.118;17.058;2023-02-01T03:25:09;3.80;99.90
23271;DHT22;11804;51.118;17.058;2023-02-01T03:27:44;3.80;99.90
23271;DHT22;11804;51.118;17.058;2023-02-01T03:32:57;3.80;99.90
23271;DHT22;11804;51.118;17.058;2023-02-01T03:35:46;3.70;99.90
23271;DHT22;11804;51.118;17.058;2023-02-01T03:38:30;3.60;99.90
23271;DHT22;11804;51.118;17.058;2023-02-01T03:41:20;3.60;99.90
23271;DHT22;11804;51.118;17.058;2023-02-01T03:46:33;3.80;99.90
23271;DHT22;11804;51.118;17.058;2023-02-01T03:49:08;3.70;99.90
23271;DHT22;11804;51.118;17.058;2023-02-01T03:51:38;3.70;99.90
23271;DHT22;11804;51.118;17.058;2023-02-01T03:54:10;3.60;99.90
23271;DHT22;11804;51.118;17.058;2023-02-01T03:56:40;3.50;99.90
23271;DHT22;11804;51.118;17.058;2023-02-01T03:59:11;3.60;99.90
23271;DHT22;11804;51.118;17.058;2023-02-01T04:01:40;3.60;99.90
23271;DHT22;11804;51.118;17.058;2023-02-01T04:04:07;3.60;99.90
23271;DHT22;11804;51.118;17.058;2023-02-01T04:06:38;3.70;99.90
23271;DHT22;11804;51.118;17.058;2023-02-01T04:09:06;3.70;99.90
23271;DHT22;11804;51.118;17.058;2023-02-01T04:11:33;3.70;99.90
23271;DHT22;11804;51.118;17.058;2023-02-01T04:14:01;3.70;99.90
23271;DHT22;11804;51.118;17.058;2023-02-01T04:16:32;3.60;99.90
23271;DHT22;11804;51.118;17.058;2023-02-01T04:19:00;3.70;99.90
23271;DHT22;11804;51.118;17.058;2023-02-01T04:21:29;3.70;99.90
23271;DHT22;11804;51.118;17.058;2023-02-01T04:23:57;3.70;99.90
23271;DHT22;11804;51.118;17.058;2023-02-01T04:26:25;3.70;99.90
23271;DHT22;11804;51.118;17.058;2023-02-01T04:28:52;3.60;99.90
23271;DHT22;11804;51.118;17.058;2023-02-01T04:31:20;3.60;99.90
23271;DHT22;11804;51.118;17.058;2023-02-01T04:33:55;3.70;99.90
23271;DHT22;11804;51.118;17.058;2023-02-01T04:36:24;3.60;99.90
23271;DHT22;11804;51.118;17.058;2023-02-01T04:38:52;3.60;99.90
23271;DHT22;11804;51.118;17.058;2023-02-01T04:41:20;3.60;99.90
23271;DHT22;11804;51.118;17.058;2023-02-01T04:43:50;3.60;99.90
23271;DHT22;11804;51.118;17.058;2023-02-01T04:46:19;3.60;99.90
23271;DHT22;11804;51.118;17.058;2023-02-01T04:48:46;3.60;99.90
23271;DHT22;11804;51.118;17.058;2023-02-01T04:51:14;3.70;99.90
23271;DHT22;11804;51.118;17.058;2023-02-01T04:53:42;3.80;99.90
23271;DHT22;11804;51.118;17.058;2023-02-01T04:56:10;3.90;99.90
23271;DHT22;11804;51.118;17.058;2023-02-01T04:58:38;3.90;99.90
23271;DHT22;11804;51.118;17.058;2023-02-01T05:01:06;4.00;99.90
23271;DHT22;11804;51.118;17.058;2023-02-01T05:03:36;4.00;99.90
23271;DHT22;11804;51.118;17.058;2023-02-01T05:06:04;4.00;99.90
23271;DHT22;11804;51.118;17.058;2023-02-01T05:08:32;4.00;99.90
23271;DHT22;11804;51.118;17.058;2023-02-01T05:11:00;4.00;99.90
23271;DHT22;11804;51.118;17.058;2023-02-01T05:13:30;4.00;99.90
23271;DHT22;11804;51.118;17.058;2023-02-01T05:16:16;4.00;99.90
23271;DHT22;11804;51.118;17.058;2023-02-01T05:18:43;4.10;99.90
23271;DHT22;11804;51.118;17.058;2023-02-01T05:21:12;4.10;99.90
23271;DHT22;11804;51.118;17.058;2023-02-01T05:23:40;4.20;99.90
23271;DHT22;11804;51.118;17.058;2023-02-01T05:26:26;4.20;99.90
23271;DHT22;11804;51.118;17.058;2023-02-01T05:28:53;4.20;99.90
23271;DHT22;11804;51.118;17.058;2023-02-01T05:31:21;4.30;99.90
23271;DHT22;11804;51.118;17.058;2023-02-01T05:33:49;4.30;99.90
23271;DHT22;11804;51.118;17.058;2023-02-01T05:36:17;4.30;99.90
23271;DHT22;11804;51.118;17.058;2023-02-01T05:38:44;4.30;99.90
23271;DHT22;11804;51.118;17.058;2023-02-01T05:41:12;4.30;99.90
23271;DHT22;11804;51.118;17.058;2023-02-01T05:43:40;4.20;99.90
23271;DHT22;11804;51.118;17.058;2023-02-01T05:46:07;4.20;99.90
23271;DHT22;11804;51.118;17.058;2023-02-01T05:48:37;4.10;99.90
23271;DHT22;11804;51.118;17.058;2023-02-01T05:51:06;4.10;99.90
23271;DHT22;11804;51.118;17.058;2023-02-01T05:53:33;4.10;99.90
23271;DHT22;11804;51.118;17.058;2023-02-01T05:56:01;4.10;99.90
23271;DHT22;11804;51.118;17.058;2023-02-01T05:58:29;4.10;99.90
23271;DHT22;11804;51.118;17.058;2023-02-01T06:00:59;4.10;99.90
23271;DHT22;11804;51.118;17.058;2023-02-01T06:03:27;4.10;99.90
23271;DHT22;11804;51.118;17.058;2023-02-01T06:05:55;4.20;99.90
23271;DHT22;11804;51.118;17.058;2023-02-01T06:08:22;4.20;99.90
23271;DHT22;11804;51.118;17.058;2023-02-01T06:11:04;4.20;99.90
23271;DHT22;11804;51.118;17.058;2023-02-01T06:13:28;4.30;99.90
23271;DHT22;11804;51.118;17.058;2023-02-01T06:15:56;4.30;99.90
23271;DHT22;11804;51.118;17.058;2023-02-01T06:18:25;4.30;99.90
23271;DHT22;11804;51.118;17.058;2023-02-01T06:20:56;4.40;99.90
23271;DHT22;11804;51.118;17.058;2023-02-01T06:23:24;4.30;99.90
23271;DHT22;11804;51.118;17.058;2023-02-01T06:25:52;4.30;99.90
23271;DHT22;11804;51.118;17.058;2023-02-01T06:28:20;4.30;99.90
23271;DHT22;11804;51.118;17.058;2023-02-01T06:30:49;4.30;99.90
23271;DHT22;11804;51.118;17.058;2023-02-01T06:33:17;4.40;99.90
23271;DHT22;11804;51.118;17.058;2023-02-01T06:35:44;4.40;99.90
23271;DHT22;11804;51.118;17.058;2023-02-01T06:38:14;4.40;99.90
23271;DHT22;11804;51.118;17.058;2023-02-01T06:40:41;4.50;99.90
23271;DHT22;11804;51.118;17.058;2023-02-01T06:43:10;4.50;99.90
23271;DHT22;11804;51.118;17.058;2023-02-01T06:45:37;4.50;99.90
23271;DHT22;11804;51.118;17.058;2023-02-01T06:48:05;4.50;99.90
23271;DHT22;11804;51.118;17.058;2023-02-01T06:50:33;4.50;99.90
23271;DHT22;11804;51.118;17.058;2023-02-01T06:53:01;4.60;99.90
23271;DHT22;11804;51.118;17.058;2023-02-01T06:55:29;4.60;99.90
23271;DHT22;11804;51.118;17.058;2023-02-01T06:57:57;4.60;99.90
23271;DHT22;11804;51.118;17.058;2023-02-01T07:00:24;4.60;99.90
23271;DHT22;11804;51.118;17.058;2023-02-01T07:02:52;4.60;99.90
23271;DHT22;11804;51.118;17.058;2023-02-01T07:05:20;4.60;99.90
23271;DHT22;11804;51.118;17.058;2023-02-01T07:07:47;4.60;99.90
23271;DHT22;11804;51.118;17.058;2023-02-01T07:10:16;4.60;99.90
23271;DHT22;11804;51.118;17.058;2023-02-01T07:12:44;4.60;99.90
23271;DHT22;11804;51.118;17.058;2023-02-01T07:15:11;4.70;99.90
23271;DHT22;11804;51.118;17.058;2023-02-01T07:17:39;4.70;99.90
23271;DHT22;11804;51.118;17.058;2023-02-01T07:20:07;4.70;99.90
23271;DHT22;11804;51.118;17.058;2023-02-01T07:22:35;4.70;99.90
23271;DHT22;11804;51.118;17.058;2023-02-01T07:25:04;4.70;99.90
23271;DHT22;11804;51.118;17.058;2023-02-01T07:27:34;4.70;99.90
23271;DHT22;11804;51.118;17.058;2023-02-01T07:30:07;4.70;99.90
23271;DHT22;11804;51.118;17.058;2023-02-01T07:32:32;4.70;99.90
23271;DHT22;11804;51.118;17.058;2023-02-01T07:35:00;4.60;99.90
23271;DHT22;11804;51.118;17.058;2023-02-01T07:37:27;4.70;99.90
23271;DHT22;11804;51.118;17.058;2023-02-01T07:39:56;4.70;99.90
23271;DHT22;11804;51.118;17.058;2023-02-01T07:42:23;4.70;99.90
23271;DHT22;11804;51.118;17.058;2023-02-01T07:44:51;4.70;99.90
23271;DHT22;11804;51.118;17.058;2023-02-01T07:47:19;4.80;99.90
23271;DHT22;11804;51.118;17.058;2023-02-01T07:49:46;4.80;99.90
23271;DHT22;11804;51.118;17.058;2023-02-01T07:52:15;4.80;99.90
23271;DHT22;11804;51.118;17.058;2023-02-01T07:54:42;4.80;99.90
23271;DHT22;11804;51.118;17.058;2023-02-01T07:57:10;4.90;99.90
23271;DHT22;11804;51.118;17.058;2023-02-01T07:59:38;4.90;99.90
23271;DHT22;11804;51.118;17.058;2023-02-01T08:02:08;5.00;99.90
23271;DHT22;11804;51.118;17.058;2023-02-01T08:04:36;5.20;99.90
23271;DHT22;11804;51.118;17.058;2023-02-01T08:07:03;5.30;99.90
23271;DHT22;11804;51.118;17.058;2023-02-01T08:09:31;5.40;99.90
23271;DHT22;11804;51.118;17.058;2023-02-01T08:11:59;5.80;99.90
23271;DHT22;11804;51.118;17.058;2023-02-01T08:14:27;5.80;99.90
23271;DHT22;11804;51.118;17.058;2023-02-01T08:16:55;5.70;99.90
23271;DHT22;11804;51.118;17.058;2023-02-01T08:19:22;5.60;99.90
23271;DHT22;11804;51.118;17.058;2023-02-01T08:21:50;5.40;99.90
23271;DHT22;11804;51.118;17.058;2023-02-01T08:24:18;5.30;99.90
23271;DHT22;11804;51.118;17.058;2023-02-01T08:26:46;5.30;99.90
23271;DHT22;11804;51.118;17.058;2023-02-01T08:29:15;5.30;99.90
23271;DHT22;11804;51.118;17.058;2023-02-01T08:31:43;5.30;99.90
23271;DHT22;11804;51.118;17.058;2023-02-01T08:34:11;5.30;99.90
23271;DHT22;11804;51.118;17.058;2023-02-01T08:36:39;5.40;99.90
23271;DHT22;11804;51.118;17.058;2023-02-01T08:39:08;5.50;99.90
23271;DHT22;11804;51.118;17.058;2023-02-01T08:41:36;5.40;99.90
23271;DHT22;11804;51.118;17.058;2023-02-01T08:44:04;5.40;99.90
23271;DHT22;11804;51.118;17.058;2023-02-01T08:46:32;5.30;99.90
23271;DHT22;11804;51.118;17.058;2023-02-01T08:49:01;5.30;99.90
23271;DHT22;11804;51.118;17.058;2023-02-01T08:51:29;5.30;99.90
23271;DHT22;11804;51.118;17.058;2023-02-01T08:53:57;5.30;99.90
23271;DHT22;11804;51.118;17.058;2023-02-01T08:56:24;5.30;99.90
23271;DHT22;11804;51.118;17.058;2023-02-01T08:58:52;5.30;99.90
23271;DHT22;11804;51.118;17.058;2023-02-01T09:01:19;5.30;99.90
23271;DHT22;11804;51.118;17.058;2023-02-01T09:03:47;5.30;99.90
23271;DHT22;11804;51.118;17.058;2023-02-01T09:06:15;5.30;99.90
23271;DHT22;11804;51.118;17.058;2023-02-01T09:08:43;5.20;99.90
23271;DHT22;11804;51.118;17.058;2023-02-01T09:11:16;5.20;99.90
23271;DHT22;11804;51.118;17.058;2023-02-01T09:13:46;5.20;99.90
23271;DHT22;11804;51.118;17.058;2023-02-01T09:16:14;5.00;99.90
23271;DHT22;11804;51.118;17.058;2023-02-01T09:18:44;5.00;99.90
23271;DHT22;11804;51.118;17.058;2023-02-01T09:21:11;5.00;99.90
23271;DHT22;11804;51.118;17.058;2023-02-01T09:23:39;5.10;99.90
23271;DHT22;11804;51.118;17.058;2023-02-01T09:26:06;5.10;99.90
23271;DHT22;11804;51.118;17.058;2023-02-01T09:28:34;5.10;99.90
23271;DHT22;11804;51.118;17.058;2023-02-01T09:31:03;5.10;99.90
23271;DHT22;11804;51.118;17.058;2023-02-01T09:33:31;5.20;99.90
23271;DHT22;11804;51.118;17.058;2023-02-01T09:36:00;5.40;99.90
23271;DHT22;11804;51.118;17.058;2023-02-01T09:38:28;5.40;99.90
23271;DHT22;11804;51.118;17.058;2023-02-01T09:40:57;5.60;99.90
23271;DHT22;11804;51.118;17.058;2023-02-01T09:43:29;5.70;99.90
23271;DHT22;11804;51.118;17.058;2023-02-01T09:46:31;5.70;99.90
23271;DHT22;11804;51.118;17.058;2023-02-01T09:48:45;5.80;99.90
23271;DHT22;11804;51.118;17.058;2023-02-01T09:51:16;5.80;99.90
23271;DHT22;11804;51.118;17.058;2023-02-01T09:53:58;5.80;99.90
23271;DHT22;11804;51.118;17.058;2023-02-01T09:56:27;5.70;99.90
23271;DHT22;11804;51.118;17.058;2023-02-01T09:59:26;5.70;99.90
23271;DHT22;11804;51.118;17.058;2023-02-01T10:01:53;5.70;99.90
23271;DHT22;11804;51.118;17.058;2023-02-01T10:04:21;5.70;99.90
23271;DHT22;11804;51.118;17.058;2023-02-01T10:09:40;5.80;99.90
23271;DHT22;11804;51.118;17.058;2023-02-01T10:17:56;5.90;99.90
23271;DHT22;11804;51.118;17.058;2023-02-01T10:20:46;5.90;99.90
23271;DHT22;11804;51.118;17.058;2023-02-01T10:25:56;5.90;99.90
23271;DHT22;11804;51.118;17.058;2023-02-01T10:28:25;5.90;99.90
23271;DHT22;11804;51.118;17.058;2023-02-01T10:30:56;6.10;99.90
23271;DHT22;11804;51.118;17.058;2023-02-01T10:33:48;6.10;99.90
23271;DHT22;11804;51.118;17.058;2023-02-01T10:36:01;6.00;99.90
23271;DHT22;11804;51.118;17.058;2023-02-01T10:38:27;6.00;99.90
23271;DHT22;11804;51.118;17.058;2023-02-01T10:41:07;5.80;99.90
23271;DHT22;11804;51.118;17.058;2023-02-01T10:43:29;5.80;99.90
23271;DHT22;11804;51.118;17.058;2023-02-01T10:45:58;6.00;99.90
23271;DHT22;11804;51.118;17.058;2023-02-01T10:48:26;6.00;99.90
23271;DHT22;11804;51.118;17.058;2023-02-01T10:51:21;6.00;99.90
23271;DHT22;11804;51.118;17.058;2023-02-01T10:53:53;5.90;99.90
23271;DHT22;11804;51.118;17.058;2023-02-01T10:56:22;5.90;99.90
23271;DHT22;11804;51.118;17.058;2023-02-01T10:58:50;6.00;99.90
23271;DHT22;11804;51.118;17.058;2023-02-01T11:01:24;5.90;99.90
23271;DHT22;11804;51.118;17.058;2023-02-01T11:03:56;5.90;99.90
23271;DHT22;11804;51.118;17.058;2023-02-01T11:06:30;5.80;99.90
23271;DHT22;11804;51.118;17.058;2023-02-01T11:09:01;5.80;99.90
23271;DHT22;11804;51.118;17.058;2023-02-01T11:11:29;5.80;99.90
23271;DHT22;11804;51.118;17.058;2023-02-01T11:14:00;5.70;99.90
23271;DHT22;11804;51.118;17.058;2023-02-01T11:16:36;5.60;99.90
23271;DHT22;11804;51.118;17.058;2023-02-01T11:19:05;5.50;99.90
23271;DHT22;11804;51.118;17.058;2023-02-01T11:21:34;5.50;99.90
23271;DHT22;11804;51.118;17.058;2023-02-01T11:24:04;5.50;99.90
23271;DHT22;11804;51.118;17.058;2023-02-01T11:26:38;5.40;99.90
23271;DHT22;11804;51.118;17.058;2023-02-01T11:29:13;5.40;99.90
23271;DHT22;11804;51.118;17.058;2023-02-01T11:31:44;5.40;99.90
23271;DHT22;11804;51.118;17.058;2023-02-01T11:34:15;5.30;99.90
23271;DHT22;11804;51.118;17.058;2023-02-01T11:36:45;5.30;99.90
23271;DHT22;11804;51.118;17.058;2023-02-01T11:39:18;5.30;99.90
23271;DHT22;11804;51.118;17.058;2023-02-01T11:42:05;5.30;99.90
23271;DHT22;11804;51.118;17.058;2023-02-01T11:44:36;5.30;99.90
23271;DHT22;11804;51.118;17.058;2023-02-01T11:49:58;5.40;99.90
23271;DHT22;11804;51.118;17.058;2023-02-01T11:55:52;5.50;99.90
23271;DHT22;11804;51.118;17.058;2023-02-01T11:58:57;5.50;99.90
23271;DHT22;11804;51.118;17.058;2023-02-01T12:01:51;5.40;99.90
23271;DHT22;11804;51.118;17.058;2023-02-01T12:09:52;5.10;99.90
23271;DHT22;11804;51.118;17.058;2023-02-01T12:12:39;5.00;99.90
23271;DHT22;11804;51.118;17.058;2023-02-01T12:15:32;5.10;99.90
23271;DHT22;11804;51.118;17.058;2023-02-01T12:23:41;5.10;99.90
23271;DHT22;11804;51.118;17.058;2023-02-01T12:26:12;5.10;99.90
23271;DHT22;11804;51.118;17.058;2023-02-01T12:31:36;5.10;99.90
23271;DHT22;11804;51.118;17.058;2023-02-01T12:34:14;5.20;99.90
23271;DHT22;11804;51.118;17.058;2023-02-01T12:42:18;5.30;99.90
23271;DHT22;11804;51.118;17.058;2023-02-01T12:47:49;5.30;99.90
23271;DHT22;11804;51.118;17.058;2023-02-01T12:50:40;5.30;99.90
23271;DHT22;11804;51.118;17.058;2023-02-01T12:53:12;5.20;99.90
23271;DHT22;11804;51.118;17.058;2023-02-01T13:06:17;5.20;99.90
23271;DHT22;11804;51.118;17.058;2023-02-01T13:09:01;5.30;99.90
23271;DHT22;11804;51.118;17.058;2023-02-01T13:11:42;5.30;99.90
23271;DHT22;11804;51.118;17.058;2023-02-01T13:17:12;5.30;99.90
23271;DHT22;11804;51.118;17.058;2023-02-01T13:19:49;5.30;99.90
23271;DHT22;11804;51.118;17.058;2023-02-01T13:24:56;5.20;99.90
23271;DHT22;11804;51.118;17.058;2023-02-01T13:27:30;5.20;99.90
23271;DHT22;11804;51.118;17.058;2023-02-01T13:30:05;5.20;99.90
23271;DHT22;11804;51.118;17.058;2023-02-01T13:44:14;5.30;99.90
23271;DHT22;11804;51.118;17.058;2023-02-01T13:46:43;5.30;99.90
23271;DHT22;11804;51.118;17.058;2023-02-01T13:49:23;5.30;99.90
23271;DHT22;11804;51.118;17.058;2023-02-01T13:51:53;5.20;99.90
23271;DHT22;11804;51.118;17.058;2023-02-01T13:54:36;5.30;99.90
23271;DHT22;11804;51.118;17.058;2023-02-01T13:57:34;5.30;99.90
23271;DHT22;11804;51.118;17.058;2023-02-01T14:02:36;5.30;99.90
23271;DHT22;11804;51.118;17.058;2023-02-01T14:05:11;5.30;99.90
23271;DHT22;11804;51.118;17.058;2023-02-01T14:13:38;5.60;99.90
23271;DHT22;11804;51.118;17.058;2023-02-01T14:16:11;5.50;99.90
23271;DHT22;11804;51.118;17.058;2023-02-01T14:26:27;5.20;99.90
23271;DHT22;11804;51.118;17.058;2023-02-01T14:29:00;5.10;99.90
23271;DHT22;11804;51.118;17.058;2023-02-01T14:34:39;5.10;99.90
23271;DHT22;11804;51.118;17.058;2023-02-01T14:37:10;5.10;99.90
23271;DHT22;11804;51.118;17.058;2023-02-01T14:42:32;5.10;99.90
23271;DHT22;11804;51.118;17.058;2023-02-01T14:44:53;5.20;99.90
23271;DHT22;11804;51.118;17.058;2023-02-01T14:50:07;5.20;99.90
23271;DHT22;11804;51.118;17.058;2023-02-01T14:52:39;5.10;99.90
23271;DHT22;11804;51.118;17.058;2023-02-01T14:55:09;5.10;99.90
23271;DHT22;11804;51.118;17.058;2023-02-01T14:57:37;5.00;99.90
23271;DHT22;11804;51.118;17.058;2023-02-01T15:00:19;5.00;99.90
23271;DHT22;11804;51.118;17.058;2023-02-01T15:02:48;5.00;99.90
23271;DHT22;11804;51.118;17.058;2023-02-01T15:05:28;5.10;99.90
23271;DHT22;11804;51.118;17.058;2023-02-01T15:08:11;5.10;99.90
23271;DHT22;11804;51.118;17.058;2023-02-01T15:10:30;5.10;99.90
23271;DHT22;11804;51.118;17.058;2023-02-01T15:12:58;5.10;99.90
23271;DHT22;11804;51.118;17.058;2023-02-01T15:15:26;5.10;99.90
23271;DHT22;11804;51.118;17.058;2023-02-01T15:17:56;5.10;99.90
23271;DHT22;11804;51.118;17.058;2023-02-01T15:20:27;5.00;99.90
23271;DHT22;11804;51.118;17.058;2023-02-01T15:23:06;5.00;99.90
23271;DHT22;11804;51.118;17.058;2023-02-01T15:25:37;4.90;99.90
23271;DHT22;11804;51.118;17.058;2023-02-01T15:28:10;4.90;99.90
23271;DHT22;11804;51.118;17.058;2023-02-01T15:30:36;5.00;99.90
23271;DHT22;11804;51.118;17.058;2023-02-01T15:33:16;5.00;99.90
23271;DHT22;11804;51.118;17.058;2023-02-01T15:35:50;5.00;99.90
23271;DHT22;11804;51.118;17.058;2023-02-01T15:41:02;5.00;99.90
23271;DHT22;11804;51.118;17.058;2023-02-01T15:43:34;5.00;99.90
23271;DHT22;11804;51.118;17.058;2023-02-01T15:46:03;5.00;99.90
23271;DHT22;11804;51.118;17.058;2023-02-01T15:48:38;5.00;99.90
23271;DHT22;11804;51.118;17.058;2023-02-01T15:51:10;5.00;99.90
23271;DHT22;11804;51.118;17.058;2023-02-01T15:53:35;5.00;99.90
23271;DHT22;11804;51.118;17.058;2023-02-01T15:56:04;5.00;99.90
23271;DHT22;11804;51.118;17.058;2023-02-01T15:58:32;5.00;99.90
23271;DHT22;11804;51.118;17.058;2023-02-01T16:01:03;4.90;99.90
23271;DHT22;11804;51.118;17.058;2023-02-01T16:03:41;4.90;99.90
23271;DHT22;11804;51.118;17.058;2023-02-01T16:08:59;4.90;99.90
23271;DHT22;11804;51.118;17.058;2023-02-01T16:11:27;4.90;99.90
23271;DHT22;11804;51.118;17.058;2023-02-01T16:13:58;4.80;99.90
23271;DHT22;11804;51.118;17.058;2023-02-01T16:16:28;4.80;99.90
23271;DHT22;11804;51.118;17.058;2023-02-01T16:18:56;4.80;99.90
23271;DHT22;11804;51.118;17.058;2023-02-01T16:21:23;4.70;99.90
23271;DHT22;11804;51.118;17.058;2023-02-01T16:23:52;4.60;99.90
23271;DHT22;11804;51.118;17.058;2023-02-01T16:26:20;4.60;99.90
23271;DHT22;11804;51.118;17.058;2023-02-01T16:28:48;4.60;99.90
23271;DHT22;11804;51.118;17.058;2023-02-01T16:31:25;4.60;99.90
23271;DHT22;11804;51.118;17.058;2023-02-01T16:33:51;4.60;99.90
23271;DHT22;11804;51.118;17.058;2023-02-01T16:36:19;4.60;99.90
23271;DHT22;11804;51.118;17.058;2023-02-01T16:38:48;4.70;99.90
23271;DHT22;11804;51.118;17.058;2023-02-01T16:41:18;4.60;99.90
23271;DHT22;11804;51.118;17.058;2023-02-01T16:43:51;4.60;99.90
23271;DHT22;11804;51.118;17.058;2023-02-01T16:46:21;4.60;99.90
23271;DHT22;11804;51.118;17.058;2023-02-01T16:48:56;4.60;99.90
23271;DHT22;11804;51.118;17.058;2023-02-01T16:51:32;4.60;99.90
23271;DHT22;11804;51.118;17.058;2023-02-01T16:54:01;4.60;99.90
23271;DHT22;11804;51.118;17.058;2023-02-01T16:56:33;4.50;99.90
23271;DHT22;11804;51.118;17.058;2023-02-01T16:59:06;4.50;99.90
23271;DHT22;11804;51.118;17.058;2023-02-01T17:01:35;4.50;99.90
23271;DHT22;11804;51.118;17.058;2023-02-01T17:04:10;4.40;99.90
23271;DHT22;11804;51.118;17.058;2023-02-01T17:06:39;4.40;99.90
23271;DHT22;11804;51.118;17.058;2023-02-01T17:09:09;4.30;99.90
23271;DHT22;11804;51.118;17.058;2023-02-01T17:11:37;4.40;99.90
23271;DHT22;11804;51.118;17.058;2023-02-01T17:14:20;4.40;99.90
23271;DHT22;11804;51.118;17.058;2023-02-01T17:16:45;4.40;99.90
23271;DHT22;11804;51.118;17.058;2023-02-01T17:19:19;4.40;99.90
23271;DHT22;11804;51.118;17.058;2023-02-01T17:21:51;4.40;99.90
23271;DHT22;11804;51.118;17.058;2023-02-01T17:24:22;4.40;99.90
23271;DHT22;11804;51.118;17.058;2023-02-01T17:26:50;4.30;99.90
23271;DHT22;11804;51.118;17.058;2023-02-01T17:29:19;4.30;99.90
23271;DHT22;11804;51.118;17.058;2023-02-01T17:31:49;4.30;99.90
23271;DHT22;11804;51.118;17.058;2023-02-01T17:34:17;4.20;99.90
23271;DHT22;11804;51.118;17.058;2023-02-01T17:36:46;4.20;99.90
23271;DHT22;11804;51.118;17.058;2023-02-01T17:39:14;4.10;99.90
23271;DHT22;11804;51.118;17.058;2023-02-01T17:41:44;4.10;99.90
23271;DHT22;11804;51.118;17.058;2023-02-01T17:44:13;4.10;99.90
23271;DHT22;11804;51.118;17.058;2023-02-01T17:46:40;4.10;99.90
23271;DHT22;11804;51.118;17.058;2023-02-01T17:49:08;4.10;99.90
23271;DHT22;11804;51.118;17.058;2023-02-01T17:51:36;4.20;99.90
23271;DHT22;11804;51.118;17.058;2023-02-01T17:54:07;4.10;99.90
23271;DHT22;11804;51.118;17.058;2023-02-01T17:56:34;4.20;99.90